createdAt,value
2023-02-09T00:01:31.463Z,100363.66
2023-02-09T00:04:00.758Z,100368.81
2023-02-09T00:06:33.443Z,100368.88
2023-02-09T00:09:00.858Z,100366.31
2023-02-09T00:11:50.133Z,100353.31
2023-02-09T00:14:21.981Z,100365.13
2023-02-09T00:16:52.005Z,100358.22
2023-02-09T00:19:21.709Z,100354.00
2023-02-09T00:21:49.343Z,100347.19
2023-02-09T00:24:16.734Z,100346.47
2023-02-09T00:26:44.819Z,100343.78
2023-02-09T00:29:13.103Z,100342.28
2023-02-09T00:31:41.187Z,100337.09
2023-02-09T00:34:08.515Z,100338.66
2023-02-09T00:36:36.250Z,100338.63
2023-02-09T00:39:04.231Z,100331.59
2023-02-09T00:41:50.985Z,100323.97
2023-02-09T00:44:18.415Z,100317.00
2023-02-09T00:46:46.413Z,100309.09
2023-02-09T00:49:13.876Z,100308.22
2023-02-09T00:51:41.116Z,100308.25
2023-02-09T00:54:08.830Z,100307.22
2023-02-09T00:56:36.368Z,100308.78
2023-02-09T00:59:04.251Z,100299.41
2023-02-09T01:01:31.845Z,100306.88
2023-02-09T01:03:59.531Z,100306.78
2023-02-09T01:06:27.084Z,100300.75
2023-02-09T01:08:54.744Z,100296.38
2023-02-09T01:11:27.155Z,100290.41
2023-02-09T01:13:59.682Z,100285.38
2023-02-09T01:16:31.777Z,100289.72
2023-02-09T01:19:01.841Z,100292.34
2023-02-09T01:21:30.106Z,100289.59
2023-02-09T01:23:58.441Z,100288.75
2023-02-09T01:26:25.797Z,100281.78
2023-02-09T01:28:54.566Z,100292.16
2023-02-09T01:31:34.984Z,100285.28
2023-02-09T01:34:04.841Z,100279.44
2023-02-09T01:36:33.821Z,100279.44
2023-02-09T01:39:04.016Z,100273.41
2023-02-09T01:41:33.155Z,100275.06
2023-02-09T01:44:12.714Z,100270.66
2023-02-09T01:46:40.570Z,100263.91
2023-02-09T01:49:10.148Z,100265.63
2023-02-09T01:51:49.361Z,100263.25
2023-02-09T01:54:29.113Z,100264.84
2023-02-09T01:57:15.624Z,100259.72
2023-02-09T01:59:48.097Z,100257.13
2023-02-09T02:02:15.937Z,100262.09
2023-02-09T02:04:45.370Z,100247.69
2023-02-09T02:07:27.157Z,100255.47
2023-02-09T02:09:55.198Z,100262.34
2023-02-09T02:12:24.678Z,100247.91
2023-02-09T02:14:52.361Z,100244.63
2023-02-09T02:17:46.678Z,100247.16
2023-02-09T02:20:26.157Z,100244.63
2023-02-09T02:23:17.685Z,100241.19
2023-02-09T02:26:19.258Z,100244.63
2023-02-09T02:28:58.771Z,100241.22
2023-02-09T02:32:00.188Z,100243.75
2023-02-09T02:35:16.471Z,100245.47
2023-02-09T02:38:06.253Z,100239.47
2023-02-09T02:40:45.997Z,100248.88
2023-02-09T02:43:25.862Z,100242.94
2023-02-09T02:46:00.769Z,100242.97
2023-02-09T02:48:57.714Z,100236.94
2023-02-09T02:51:35.974Z,100237.78
2023-02-09T02:54:18.198Z,100230.16
2023-02-09T02:56:57.437Z,100237.66
2023-02-09T02:59:37.405Z,100237.69
2023-02-09T03:02:22.450Z,100223.13
2023-02-09T03:04:55.802Z,100229.97
2023-02-09T03:07:23.180Z,100228.97
2023-02-09T03:09:54.633Z,100231.25
2023-02-09T03:12:45.684Z,100222.69
2023-02-09T03:15:34.504Z,100222.69
2023-02-09T03:18:10.562Z,100221.78
2023-02-09T03:20:51.597Z,100212.41
2023-02-09T03:23:48.633Z,100211.34
2023-02-09T03:26:27.807Z,100204.56
2023-02-09T03:28:59.181Z,100201.16
2023-02-09T03:31:29.127Z,100193.53
2023-02-09T03:34:00.948Z,100204.66
2023-02-09T03:36:37.396Z,100197.72
2023-02-09T03:39:05.101Z,100196.91
2023-02-09T03:41:32.733Z,100194.34
2023-02-09T03:44:18.540Z,100189.22
2023-02-09T03:46:46.185Z,100185.75
2023-02-09T03:49:15.094Z,100183.91
2023-02-09T03:51:43.294Z,100177.09
2023-02-09T03:54:10.760Z,100177.91
2023-02-09T03:56:38.359Z,100182.09
2023-02-09T03:59:06.437Z,100183.00
2023-02-09T04:01:34.012Z,100191.31
2023-02-09T04:04:02.678Z,100178.47
2023-02-09T04:06:33.033Z,100175.00
2023-02-09T04:09:01.595Z,100178.28
2023-02-09T04:11:29.227Z,100181.59
2023-02-09T04:13:56.733Z,100178.16
2023-02-09T04:16:24.821Z,100179.03
2023-02-09T04:18:53.444Z,100178.88
2023-02-09T04:21:21.864Z,100182.41
2023-02-09T04:23:49.341Z,100186.66
2023-02-09T04:26:17.531Z,100188.34
2023-02-09T04:28:44.954Z,100180.47
2023-02-09T04:31:12.879Z,100175.25
2023-02-09T04:33:40.831Z,100172.00
2023-02-09T04:36:09.708Z,100175.94
2023-02-09T04:38:37.023Z,100165.53
2023-02-09T04:41:05.814Z,100154.41
2023-02-09T04:43:34.423Z,100149.91
2023-02-09T04:46:02.201Z,100152.63
2023-02-09T04:48:30.938Z,100151.84
2023-02-09T04:50:58.746Z,100150.88
2023-02-09T04:53:26.277Z,100155.81
2023-02-09T04:55:53.837Z,100160.88
2023-02-09T04:58:40.160Z,100151.59
2023-02-09T05:01:11.076Z,100158.81
2023-02-09T05:03:38.453Z,100159.06
2023-02-09T05:06:06.578Z,100159.78
2023-02-09T05:08:34.043Z,100159.88
2023-02-09T05:11:01.931Z,100159.03
2023-02-09T05:13:29.773Z,100155.66
2023-02-09T05:15:57.531Z,100144.50
2023-02-09T05:18:25.799Z,100146.53
2023-02-09T05:20:53.399Z,100142.03
2023-02-09T05:23:20.752Z,100144.56
2023-02-09T05:25:48.542Z,100134.91
2023-02-09T05:28:16.545Z,100139.09
2023-02-09T05:30:44.800Z,100141.69
2023-02-09T05:33:12.422Z,100146.81
2023-02-09T05:35:40.042Z,100139.91
2023-02-09T05:38:07.395Z,100152.88
2023-02-09T05:40:34.952Z,100151.94
2023-02-09T05:43:03.495Z,100147.53
2023-02-09T05:45:31.190Z,100149.88
2023-02-09T05:47:58.636Z,100140.09
2023-02-09T05:50:26.257Z,100134.91
2023-02-09T05:52:53.603Z,100143.44
2023-02-09T05:55:21.256Z,100137.44
2023-02-09T05:57:48.643Z,100139.19
2023-02-09T06:00:16.821Z,100143.53
2023-02-09T06:02:44.507Z,100139.28
2023-02-09T06:05:12.216Z,100135.50
2023-02-09T06:07:39.722Z,100134.03
2023-02-09T06:10:07.850Z,100133.06
2023-02-09T06:12:35.291Z,100129.69
2023-02-09T06:15:02.956Z,100127.00
2023-02-09T06:17:30.641Z,100130.19
2023-02-09T06:19:58.271Z,100127.97
2023-02-09T06:22:25.776Z,100132.53
2023-02-09T06:24:53.442Z,100128.88
2023-02-09T06:27:20.881Z,100128.41
2023-02-09T06:29:48.541Z,100137.16
2023-02-09T06:32:15.843Z,100142.31
2023-02-09T06:34:43.620Z,100136.50
2023-02-09T06:37:11.082Z,100134.34
2023-02-09T06:39:38.783Z,100136.22
2023-02-09T06:42:06.215Z,100133.75
2023-02-09T06:44:33.955Z,100135.66
2023-02-09T06:47:01.469Z,100128.09
2023-02-09T06:49:29.206Z,100134.00
2023-02-09T06:51:56.871Z,100133.94
2023-02-09T06:54:25.866Z,100136.50
2023-02-09T06:56:53.232Z,100136.72
2023-02-09T06:59:21.351Z,100142.84
2023-02-09T07:01:54.860Z,100142.94
2023-02-09T07:04:22.989Z,100148.97
2023-02-09T07:06:50.576Z,100146.22
2023-02-09T07:09:18.294Z,100142.13
2023-02-09T07:11:45.629Z,100150.66
2023-02-09T07:14:13.282Z,100144.25
2023-02-09T07:16:40.808Z,100144.50
2023-02-09T07:19:08.636Z,100140.69
2023-02-09T07:21:35.964Z,100138.88
2023-02-09T07:24:03.904Z,100142.53
2023-02-09T07:26:31.330Z,100142.78
2023-02-09T07:28:58.989Z,100143.47
2023-02-09T07:31:27.316Z,100142.91
2023-02-09T07:33:56.025Z,100146.28
2023-02-09T07:36:24.139Z,100152.31
2023-02-09T07:38:52.062Z,100154.69
2023-02-09T07:41:27.968Z,100150.91
2023-02-09T07:43:56.969Z,100150.69
2023-02-09T07:46:25.727Z,100157.81
2023-02-09T07:48:53.442Z,100154.75
2023-02-09T07:51:25.481Z,100150.34
2023-02-09T07:53:53.935Z,100154.63
2023-02-09T07:56:22.743Z,100154.50
2023-02-09T07:58:50.998Z,100148.19
2023-02-09T08:01:20.255Z,100157.91
2023-02-09T08:03:50.553Z,100149.34
2023-02-09T08:06:43.343Z,100151.22
2023-02-09T08:09:15.076Z,100147.75
2023-02-09T08:11:49.330Z,100143.03
2023-02-09T08:14:24.075Z,100140.69
2023-02-09T08:17:17.948Z,100133.94
2023-02-09T08:20:02.361Z,100140.88
2023-02-09T08:22:35.180Z,100140.13
2023-02-09T08:25:05.361Z,100133.44
2023-02-09T08:27:32.965Z,100141.31
2023-02-09T08:30:03.016Z,100133.06
2023-02-09T08:32:30.371Z,100135.94
2023-02-09T08:34:57.967Z,100124.44
2023-02-09T08:37:25.346Z,100110.28
2023-02-09T08:39:53.206Z,100111.22
2023-02-09T08:42:20.605Z,100103.25
2023-02-09T08:44:48.284Z,100090.50
2023-02-09T08:47:15.728Z,100084.44
2023-02-09T08:49:43.361Z,100095.63
2023-02-09T08:52:10.773Z,100092.16
2023-02-09T08:54:38.630Z,100092.25
2023-02-09T08:57:05.975Z,100078.16
2023-02-09T08:59:34.065Z,100085.31
2023-02-09T09:02:01.387Z,100078.88
2023-02-09T09:04:29.729Z,100079.38
2023-02-09T09:06:57.181Z,100081.34
2023-02-09T09:09:25.357Z,100090.88
2023-02-09T09:11:52.788Z,100091.81
2023-02-09T09:14:20.556Z,100097.81
2023-02-09T09:16:48.265Z,100099.72
2023-02-09T09:19:16.248Z,100096.44
2023-02-09T09:21:43.753Z,100096.34
2023-02-09T09:24:11.595Z,100094.13
2023-02-09T09:26:38.958Z,100094.09
2023-02-09T09:29:06.636Z,100102.59
2023-02-09T09:31:34.090Z,100094.72
2023-02-09T09:34:01.909Z,100097.88
2023-02-09T09:36:29.334Z,100104.63
2023-02-09T09:38:57.824Z,100112.47
2023-02-09T09:41:33.564Z,100097.22
2023-02-09T09:44:03.563Z,100091.84
2023-02-09T09:46:46.161Z,100111.78
2023-02-09T09:49:26.412Z,100106.50
2023-02-09T09:52:05.971Z,100097.34
2023-02-09T09:54:36.901Z,100100.38
2023-02-09T09:57:18.628Z,100101.00
2023-02-09T09:59:47.375Z,100103.63
2023-02-09T10:02:27.301Z,100095.88
2023-02-09T10:05:12.879Z,100094.44
2023-02-09T10:07:49.420Z,100090.81
2023-02-09T10:10:41.151Z,100086.13
2023-02-09T10:13:24.036Z,100083.38
2023-02-09T10:15:55.721Z,100095.84
2023-02-09T10:18:25.567Z,100092.00
2023-02-09T10:21:06.667Z,100089.75
2023-02-09T10:24:04.306Z,100083.44
2023-02-09T10:26:37.874Z,100093.19
2023-02-09T10:29:12.031Z,100089.84
2023-02-09T10:31:45.069Z,100086.25
2023-02-09T10:34:21.412Z,100085.75
2023-02-09T10:36:56.109Z,100073.78
2023-02-09T10:39:31.717Z,100071.97
2023-02-09T10:42:12.770Z,100074.69
2023-02-09T10:44:40.484Z,100077.47
2023-02-09T10:47:31.641Z,100073.31
2023-02-09T10:50:18.373Z,100072.84
2023-02-09T10:53:17.668Z,100060.34
2023-02-09T10:55:46.816Z,100060.25
2023-02-09T10:58:37.642Z,100049.00
2023-02-09T11:01:27.058Z,100052.56
2023-02-09T11:04:23.262Z,100047.75
2023-02-09T11:06:59.303Z,100029.16
2023-02-09T11:09:59.760Z,100031.34
2023-02-09T11:12:28.738Z,100034.94
2023-02-09T11:14:56.476Z,100027.28
2023-02-09T11:17:45.763Z,100011.94
2023-02-09T11:20:36.156Z,100001.44
2023-02-09T11:23:21.258Z,100003.97
2023-02-09T11:26:01.564Z,100000.25
2023-02-09T11:28:48.075Z,99999.91
2023-02-09T11:31:46.607Z,99982.84
2023-02-09T11:34:53.890Z,99981.16
2023-02-09T11:37:27.633Z,99978.44
2023-02-09T11:40:11.242Z,99983.34
2023-02-09T11:43:06.736Z,99975.59
2023-02-09T11:46:04.201Z,99981.34
2023-02-09T11:48:46.126Z,99964.50
2023-02-09T11:51:22.493Z,99961.31
2023-02-09T11:54:18.918Z,99955.38
2023-02-09T11:56:52.969Z,99952.97
2023-02-09T11:59:40.556Z,99936.44
2023-02-09T12:02:23.791Z,99945.50
2023-02-09T12:05:02.014Z,99950.91
2023-02-09T12:08:13.908Z,99939.06
2023-02-09T12:11:32.629Z,99937.47
2023-02-09T12:14:03.229Z,99924.44
2023-02-09T12:16:39.220Z,99955.00
2023-02-09T12:19:33.331Z,99915.38
2023-02-09T12:22:35.274Z,99920.28
2023-02-09T12:25:23.073Z,99931.59
2023-02-09T12:28:09.301Z,99931.41
2023-02-09T12:30:43.061Z,99919.38
2023-02-09T12:33:22.908Z,99914.06
2023-02-09T12:36:14.612Z,99915.72
2023-02-09T12:38:56.453Z,99909.66
2023-02-09T12:41:29.216Z,99894.28
2023-02-09T12:44:25.961Z,99907.41
2023-02-09T12:46:57.993Z,99899.41
2023-02-09T12:49:28.365Z,99902.03
2023-02-09T12:52:01.563Z,99889.69
2023-02-09T12:55:03.223Z,99899.34
2023-02-09T12:57:51.515Z,99898.16
2023-02-09T13:00:19.095Z,99888.47
2023-02-09T13:02:50.769Z,99877.00
2023-02-09T13:05:38.128Z,99879.06
2023-02-09T13:08:11.531Z,99881.22
2023-02-09T13:10:57.720Z,99871.75
2023-02-09T13:13:51.356Z,99878.50
2023-02-09T13:16:25.183Z,99873.31
2023-02-09T13:19:18.541Z,99875.41
2023-02-09T13:22:15.793Z,99878.88
2023-02-09T13:24:58.832Z,99875.59
2023-02-09T13:27:28.884Z,99867.75
2023-02-09T13:29:59.175Z,99855.50
2023-02-09T13:32:55.467Z,99859.19
2023-02-09T13:35:38.952Z,99864.56
2023-02-09T13:38:19.227Z,99859.94
2023-02-09T13:40:49.848Z,99847.63
2023-02-09T13:43:38.379Z,99840.97
2023-02-09T13:46:06.569Z,99836.19
2023-02-09T13:48:39.762Z,99842.88
2023-02-09T13:51:23.657Z,99834.72
2023-02-09T13:54:03.145Z,99839.75
2023-02-09T13:56:33.566Z,99837.75
2023-02-09T13:59:01.610Z,99828.00
2023-02-09T14:01:35.798Z,99832.31
2023-02-09T14:04:18.572Z,99818.13
2023-02-09T14:07:09.127Z,99823.72
2023-02-09T14:09:49.548Z,99809.59
2023-02-09T14:12:51.208Z,99813.09
2023-02-09T14:15:56.280Z,99814.59
2023-02-09T14:18:26.366Z,99817.31
2023-02-09T14:21:25.005Z,99812.06
2023-02-09T14:23:58.348Z,99804.88
2023-02-09T14:26:44.420Z,99813.00
2023-02-09T14:29:37.653Z,99808.63
2023-02-09T14:32:37.517Z,99818.16
2023-02-09T14:35:45.664Z,99799.69
2023-02-09T14:38:39.400Z,99797.63
2023-02-09T14:41:27.427Z,99799.34
2023-02-09T14:44:21.113Z,99795.88
2023-02-09T14:46:57.737Z,99795.88
2023-02-09T14:49:26.945Z,99801.09
2023-02-09T14:52:12.540Z,99794.84
2023-02-09T14:54:50.765Z,99784.13
2023-02-09T14:57:18.521Z,99789.59
2023-02-09T14:59:46.168Z,99790.25
2023-02-09T15:02:24.027Z,99788.94
2023-02-09T15:04:54.376Z,99780.16
2023-02-09T15:07:35.164Z,99791.00
2023-02-09T15:10:08.475Z,99785.72
2023-02-09T15:12:35.807Z,99796.16
2023-02-09T15:15:04.050Z,99786.91
2023-02-09T15:17:32.354Z,99783.00
2023-02-09T15:19:59.984Z,99803.38
2023-02-09T15:22:27.332Z,99788.22
2023-02-09T15:24:55.042Z,99786.78
2023-02-09T15:27:33.957Z,99795.16
2023-02-09T15:30:04.816Z,99780.03
2023-02-09T15:32:32.383Z,99781.09
2023-02-09T15:35:00.028Z,99781.53
2023-02-09T15:37:33.354Z,99775.53
2023-02-09T15:40:51.592Z,99775.81
2023-02-09T15:43:41.939Z,99768.69
2023-02-09T15:46:29.472Z,99768.91
2023-02-09T15:48:57.188Z,99774.94
2023-02-09T15:51:29.982Z,99763.00
2023-02-09T15:54:03.343Z,99767.84
2023-02-09T15:56:31.486Z,99769.78
2023-02-09T15:59:03.827Z,99771.16
2023-02-09T16:01:34.131Z,99762.50
2023-02-09T16:04:13.458Z,99772.00
2023-02-09T16:06:54.003Z,99773.16
2023-02-09T16:09:28.178Z,99771.81
2023-02-09T16:11:56.026Z,99770.50
2023-02-09T16:14:26.978Z,99777.03
2023-02-09T16:16:54.698Z,99769.34
2023-02-09T16:19:22.143Z,99766.81
2023-02-09T16:21:56.583Z,99761.19
2023-02-09T16:24:32.982Z,99777.69
2023-02-09T16:27:07.363Z,99765.94
2023-02-09T16:29:34.653Z,99764.34
2023-02-09T16:32:02.368Z,99760.22
2023-02-09T16:34:29.801Z,99767.91
2023-02-09T16:36:57.605Z,99773.13
2023-02-09T16:39:25.299Z,99772.50
2023-02-09T16:41:53.685Z,99773.44
2023-02-09T16:44:25.965Z,99779.63
2023-02-09T16:46:57.609Z,99771.06
2023-02-09T16:49:35.335Z,99783.22
2023-02-09T16:52:27.421Z,99777.16
2023-02-09T16:55:01.554Z,99775.56
2023-02-09T16:57:29.482Z,99777.50
2023-02-09T16:59:57.081Z,99771.31
2023-02-09T17:02:53.945Z,99770.66
2023-02-09T17:05:27.830Z,99778.56
2023-02-09T17:08:25.857Z,99782.94
2023-02-09T17:10:56.369Z,99776.03
2023-02-09T17:13:25.275Z,99779.50
2023-02-09T17:16:05.472Z,99775.34
2023-02-09T17:18:40.622Z,99771.94
2023-02-09T17:21:19.019Z,99781.50
2023-02-09T17:23:46.878Z,99776.38
2023-02-09T17:26:15.250Z,99785.81
2023-02-09T17:28:43.369Z,99791.84
2023-02-09T17:31:28.473Z,99789.34
2023-02-09T17:33:59.619Z,99784.28
2023-02-09T17:36:29.668Z,99777.34
2023-02-09T17:39:00.154Z,99776.63
2023-02-09T17:41:37.211Z,99770.66
2023-02-09T17:44:45.516Z,99769.66
2023-02-09T17:47:19.595Z,99775.78
2023-02-09T17:49:47.477Z,99767.31
2023-02-09T17:52:20.898Z,99764.81
2023-02-09T17:54:49.499Z,99763.13
2023-02-09T17:57:18.278Z,99764.84
2023-02-09T17:59:47.174Z,99762.28
2023-02-09T18:02:19.869Z,99764.91
2023-02-09T18:04:47.894Z,99761.50
2023-02-09T18:07:20.897Z,99758.13
2023-02-09T18:09:48.770Z,99760.72
2023-02-09T18:12:29.209Z,99753.06
2023-02-09T18:14:59.284Z,99746.97
2023-02-09T18:17:27.130Z,99750.44
2023-02-09T18:20:02.803Z,99747.88
2023-02-09T18:22:30.422Z,99735.00
2023-02-09T18:25:00.729Z,99739.38
2023-02-09T18:27:28.068Z,99740.28
2023-02-09T18:29:55.852Z,99735.97
2023-02-09T18:32:24.053Z,99737.69
2023-02-09T18:34:51.877Z,99726.59
2023-02-09T18:37:19.360Z,99724.03
2023-02-09T18:39:47.902Z,99724.94
2023-02-09T18:42:16.652Z,99724.09
2023-02-09T18:44:44.423Z,99715.53
2023-02-09T18:47:13.312Z,99718.97
2023-02-09T18:49:42.300Z,99728.44
2023-02-09T18:52:10.554Z,99720.69
2023-02-09T18:54:38.463Z,99718.13
2023-02-09T18:57:05.910Z,99718.16
2023-02-09T18:59:33.807Z,99721.59
2023-02-09T19:02:01.292Z,99717.31
2023-02-09T19:04:29.146Z,99717.31
2023-02-09T19:06:56.841Z,99707.03
2023-02-09T19:09:24.765Z,99705.31
2023-02-09T19:11:52.245Z,99704.44
2023-02-09T19:14:38.041Z,99695.91
2023-02-09T19:17:18.101Z,99699.34
2023-02-09T19:19:46.342Z,99696.78
2023-02-09T19:22:18.018Z,99695.84
2023-02-09T19:24:47.517Z,99698.50
2023-02-09T19:27:18.926Z,99686.53
2023-02-09T19:29:47.040Z,99690.81
2023-02-09T19:32:15.520Z,99684.00
2023-02-09T19:34:45.460Z,99685.69
2023-02-09T19:37:14.259Z,99678.00
2023-02-09T19:39:42.214Z,99676.28
2023-02-09T19:42:09.603Z,99674.59
2023-02-09T19:44:37.520Z,99675.47
2023-02-09T19:47:05.163Z,99680.59
2023-02-09T19:49:34.367Z,99673.75
2023-02-09T19:52:02.144Z,99688.28
2023-02-09T19:54:29.808Z,99684.91
2023-02-09T19:56:57.088Z,99690.88
2023-02-09T19:59:24.930Z,99691.75
2023-02-09T20:01:52.416Z,99688.31
2023-02-09T20:04:20.046Z,99688.34
2023-02-09T20:06:47.407Z,99684.91
2023-02-09T20:09:16.739Z,99690.91
2023-02-09T20:11:44.158Z,99690.06
2023-02-09T20:14:12.629Z,99686.63
2023-02-09T20:16:40.389Z,99687.44
2023-02-09T20:19:08.399Z,99680.63
2023-02-09T20:21:35.796Z,99677.22
2023-02-09T20:24:09.565Z,99678.06
2023-02-09T20:26:36.999Z,99676.34
2023-02-09T20:29:08.255Z,99667.78
2023-02-09T20:31:38.689Z,99666.91
2023-02-09T20:34:09.889Z,99666.94
2023-02-09T20:36:40.957Z,99665.25
2023-02-09T20:39:13.471Z,99665.22
2023-02-09T20:42:00.905Z,99654.97
2023-02-09T20:44:46.871Z,99655.81
2023-02-09T20:47:14.410Z,99673.81
2023-02-09T20:49:43.526Z,99671.22
2023-02-09T20:52:11.670Z,99667.81
2023-02-09T20:54:39.609Z,99662.69
2023-02-09T20:57:06.980Z,99659.25
2023-02-09T20:59:34.938Z,99663.53
2023-02-09T21:02:02.486Z,99671.25
2023-02-09T21:04:30.390Z,99673.78
2023-02-09T21:07:00.393Z,99681.50
2023-02-09T21:09:29.320Z,99687.50
2023-02-09T21:11:57.259Z,99684.91
2023-02-09T21:14:41.080Z,99682.34
2023-02-09T21:17:09.824Z,99673.81
2023-02-09T21:19:37.694Z,99676.38
2023-02-09T21:22:05.235Z,99668.66
2023-02-09T21:24:33.404Z,99657.53
2023-02-09T21:27:00.877Z,99652.41
2023-02-09T21:29:29.359Z,99645.56
2023-02-09T21:32:00.295Z,99646.41
2023-02-09T21:34:28.008Z,99639.56
2023-02-09T21:36:55.394Z,99630.16
2023-02-09T21:39:23.542Z,99637.88
2023-02-09T21:42:09.378Z,99620.75
2023-02-09T21:44:37.609Z,99620.75
2023-02-09T21:47:05.160Z,99620.78
2023-02-09T21:49:33.850Z,99645.56
2023-02-09T21:52:01.135Z,99654.09
2023-02-09T21:54:33.246Z,99659.22
2023-02-09T21:57:04.291Z,99654.94
2023-02-09T21:59:31.969Z,99654.94
2023-02-09T22:01:59.291Z,99665.19
2023-02-09T22:04:26.922Z,99668.63
2023-02-09T22:06:54.426Z,99689.16
2023-02-09T22:09:23.189Z,99689.13
2023-02-09T22:11:50.735Z,99700.22
2023-02-09T22:14:18.240Z,99700.28
2023-02-09T22:16:46.828Z,99684.06
2023-02-09T22:19:14.580Z,99684.91
2023-02-09T22:21:41.902Z,99691.66
2023-02-09T22:24:14.008Z,99695.94
2023-02-09T22:26:41.376Z,99689.94
2023-02-09T22:29:10.681Z,99680.59
2023-02-09T22:31:38.054Z,99685.72
2023-02-09T22:34:07.361Z,99695.97
2023-02-09T22:36:35.748Z,99697.66
2023-02-09T22:39:07.104Z,99707.03
2023-02-09T22:41:34.866Z,99707.91
2023-02-09T22:44:12.032Z,99711.28
2023-02-09T22:46:42.883Z,99714.75
2023-02-09T22:49:21.188Z,99705.31
2023-02-09T22:51:50.012Z,99707.00
2023-02-09T22:54:20.193Z,99712.97
2023-02-09T22:56:47.867Z,99708.66
2023-02-09T22:59:16.083Z,99701.78
2023-02-09T23:01:44.645Z,99698.50
2023-02-09T23:04:12.560Z,99689.88
2023-02-09T23:06:40.081Z,99697.59
2023-02-09T23:09:09.256Z,99689.88
2023-02-09T23:11:36.729Z,99691.59
2023-02-09T23:14:10.546Z,99691.56
2023-02-09T23:16:42.287Z,99688.97
2023-02-09T23:19:21.268Z,99694.13
2023-02-09T23:21:51.434Z,99699.19
2023-02-09T23:24:21.842Z,99705.16
2023-02-09T23:26:49.444Z,99711.19
2023-02-09T23:29:18.022Z,99711.13
2023-02-09T23:31:47.134Z,99711.13
2023-02-09T23:34:21.045Z,99712.84
2023-02-09T23:36:48.627Z,99712.84
2023-02-09T23:39:22.580Z,99713.69
2023-02-09T23:41:50.074Z,99715.41
2023-02-09T23:44:17.694Z,99705.16
2023-02-09T23:46:45.070Z,99704.31
2023-02-09T23:49:12.675Z,99719.69
2023-02-09T23:51:40.271Z,99714.56
2023-02-09T23:54:08.281Z,99712.84
2023-02-09T23:56:38.356Z,99711.19
2023-02-09T23:59:11.531Z,99709.50
